LEVXLECO

Guest
Details From LEVX - Vigo
To LECO - A Coruna
Flight Number -
Tags Generated
Created
Modified
Stats Distance 65 nm / 121 km
Max Altitude 0 ft / 0 m
Waypoints 2
Social Downloads 4
Likes 0
Share VATSIM

Download

Looking for another format? Having issues loading an existing format? Contact us
Advertisement - Login to hide

Notes

Generated

Route

LEVX LECO

ID Type Via Altitude Latitude Longitude Leg Dist Tot Dist Heading (true) Name
O LEVX APT - 0 ft / 0 m 42.22128˚ -8.62966˚ - 0 nm - -
O LECO APT - 0 ft / 0 m 43.29478˚ -8.38323˚ 65 nm 65 nm 9° / 10° -

Altitude Profile

Advertisement - Login to hide

LEVX

Details ICAO LEVX (VGO)
Name Vigo
Region Spain
Timezone Europe/Madrid (UTC+2.0)
Stats Elevation 855 ft / 261 m (AMSL)
Location 42.231894° -8.626774°
Runways 1
Magnetic Variation 2.332° W

METAR

LEVX 231930Z 35003KT 250V060 CAVOK 18/13 Q1016 NOSIG

Decode

TAF

TAF LEVX 231700Z 2318/2418 VRB05KT 8000 SCT015 TX25/2413Z TN12/2406Z TEMPO 2318/2320 29010KT PROB30 TEMPO 2318/2320 3000 SHRA BKN010 SCT020TCU PROB30 TEMPO 2318/2320 3000 TSRA SCT020CB PROB30 TEMPO 2400/2407 1500 BCFG BKN002

Decode

Departure Runways

ID Width Length Bearing (true) Bearing (mag) Surface Threshold Offset Overrun Length
02 148 ft / 45 m 7,905 ft / 2,409 m 11.38° 13.71° Asphalt 0 ft / 0 m 164 ft / 50 m
20 148 ft / 45 m 7,905 ft / 2,409 m 191.38° 193.71° Asphalt 0 ft / 0 m 164 ft / 50 m

LECO

Details ICAO LECO (LCG)
Name A Coruna
Region Spain
Timezone Europe/Madrid (UTC+2.0)
Stats Elevation 323 ft / 98 m (AMSL)
Location 43.302264° -8.377086°
Runways 1
Magnetic Variation 2.333° W

METAR

LECO 231930Z 05003KT 9999 FEW040 20/15 Q1015 NOSIG

Decode

TAF

TAF LECO 231400Z 2315/2415 VRB05KT 9999 FEW025 TX24/2414Z TN13/2405Z TEMPO 2315/2318 01010KT TEMPO 2315/2318 SCT025TCU PROB40 TEMPO 2315/2318 3000 TS SHRA BKN010 SCT025CB PROB30 TEMPO 2403/2407 1500 BCFG BKN002 TEMPO 2412/2415 SCT025TCU PROB40 TEMPO 2412/2415 3000 TS SHRA BKN010 SCT025CB

Decode

Destination Runways

ID Width Length Bearing (true) Bearing (mag) Surface Threshold Offset Overrun Length
04 148 ft / 45 m 6,371 ft / 1,942 m 30.94° 33.27° Asphalt 0 ft / 0 m 194 ft / 59 m
22 148 ft / 45 m 6,371 ft / 1,942 m 210.94° 213.27° Asphalt 0 ft / 0 m 203 ft / 62 m

Approach Navaids

Runway Type Ident Frequency Range Bearing (true) Bearing (mag) Slope Elevation
22 Localiser LCO 109.90 MHz 18 nm / 33 km 210.89° 213.22° - 329 ft / 100 m (AMSL)
22 Glidescope LCO 109.90 MHz 10 nm / 19 km 210.94° 213.27° 3.00° 323 ft / 98 m (AMSL)
22 DME LCO 109.90 MHz 18 nm / 33 km - - - 293 ft / 89 m (AMSL)

Popular Alternatives